Frisco, CO

2:23 PM MDT on April 19, 2015 (GMT -0600)
Meadow Creek | | Change Station
CLOSE
Current Station
Personal Weather Station
Location: Frisco, CO
Elevation: 9094 ft
Nearby Weather Stations

Elev 9094 ft 39.58 °N, 106.10 °W | Updated 4 seconds ago

Overcast
Overcast
35.2 °F
Feels Like 28 °F
N
9.0
Wind Variable Wind from NW
Gusts 12.0 mph

Today
High -- | Low -- °F
--% Chance of Precip.
Yesterday
High -- | Low -- °F
Precip. -- in
6:21 AM 7:46 PM
New Moon, 2% visible
Pressure 30.09 in
Visibility 2.0 miles
Clouds Few 2200 ft
Mostly Cloudy 2800 ft
Overcast 5000 ft
Windchill 28 °F
Dew Point 28 °F
Humidity 76%
Rainfall 0.00 in
Snow Depth Not available.
UV 3 out of 12
Pollen 8.40 out of 12
Air Quality Not available.
Flu Activity Local Activity
SPECI KLXV 192016Z AUTO 32013G20KT 2SM -SN FEW022 BKN028 OVC050 M01/M04 A3009 RMK AO2 UPB1957E1958SNB1955E1957B1958 P0000 T10061044

More Conditions Fewer Conditions

Pressure 30.09 in
Visibility 2.0 miles
Clouds Few 2200 ft
Mostly Cloudy 2800 ft
Overcast 5000 ft
Windchill 28 °F
Dew Point 28 °F
Humidity 76%
Rainfall 0.00 in
Snow Depth Not available.
UV 3 out of 12
Pollen 8.40 out of 12
Air Quality Not available.
Flu Activity Local Activity
SPECI KLXV 192016Z AUTO 32013G20KT 2SM -SN FEW022 BKN028 OVC050 M01/M04 A3009 RMK AO2 UPB1957E1958SNB1955E1957B1958 P0000 T10061044

More Conditions Fewer Conditions

10-Day Weather Forecast

Almanac

Astronomy

Apr. 19, 2015 Rise Set
Actual Time
Civil Twilight
Nautical Twilight
Astronomical Twilight
Moon
Length of Visible Light
Length of Day
Tomorrow will be .
, % of the Moon is Illuminated

Today's Extremes

State Highs State Lows

Community

WunderPhotos

Upload Photos

1,814,973 photos uploaded!

WunderBlogs® & News

Nearby

Air Quality

  Air Quality AQ Index Pollutant
Not available.

Snow Depth

Station Depth Elevation

Earthquake Activity

City Distance Mag. Time & Date
Minimum magnitude displayed is 2.5.

Coastal Water Temperatures

Place Temperature

Stations

Nearby Weather Stations

Station Location Temp. Windchill Dew Point Humidity Wind Precip. Elev Updated Type